sensor_id;sensor_type;location;lat;lon;timestamp;P1;durP1;ratioP1;P2;durP2;ratioP2
78887;SDS011;68276;49.326;8.690;2023-05-16T00:01:10;19.33;;;8.98;;
78887;SDS011;68276;49.326;8.690;2023-05-16T00:03:36;20.90;;;9.48;;
78887;SDS011;68276;49.326;8.690;2023-05-16T00:06:02;20.17;;;9.43;;
78887;SDS011;68276;49.326;8.690;2023-05-16T00:08:29;17.42;;;8.38;;
78887;SDS011;68276;49.326;8.690;2023-05-16T00:10:54;19.85;;;10.20;;
78887;SDS011;68276;49.326;8.690;2023-05-16T00:13:20;17.87;;;9.50;;
78887;SDS011;68276;49.326;8.690;2023-05-16T00:15:49;20.98;;;9.93;;
78887;SDS011;68276;49.326;8.690;2023-05-16T00:18:15;19.60;;;9.40;;
78887;SDS011;68276;49.326;8.690;2023-05-16T00:20:41;18.55;;;9.45;;
78887;SDS011;68276;49.326;8.690;2023-05-16T00:23:06;19.63;;;9.25;;
78887;SDS011;68276;49.326;8.690;2023-05-16T00:25:32;19.17;;;8.68;;
78887;SDS011;68276;49.326;8.690;2023-05-16T00:27:57;20.07;;;8.80;;
78887;SDS011;68276;49.326;8.690;2023-05-16T00:30:22;19.73;;;9.17;;
78887;SDS011;68276;49.326;8.690;2023-05-16T00:32:48;19.77;;;9.73;;
78887;SDS011;68276;49.326;8.690;2023-05-16T00:35:13;18.37;;;9.80;;
78887;SDS011;68276;49.326;8.690;2023-05-16T00:37:39;20.10;;;9.73;;
78887;SDS011;68276;49.326;8.690;2023-05-16T00:40:04;18.90;;;10.35;;
78887;SDS011;68276;49.326;8.690;2023-05-16T00:42:30;19.27;;;9.10;;
78887;SDS011;68276;49.326;8.690;2023-05-16T00:44:56;21.30;;;9.10;;
78887;SDS011;68276;49.326;8.690;2023-05-16T00:47:21;21.95;;;9.77;;
78887;SDS011;68276;49.326;8.690;2023-05-16T00:49:46;22.47;;;9.70;;
78887;SDS011;68276;49.326;8.690;2023-05-16T00:52:12;21.08;;;10.48;;
78887;SDS011;68276;49.326;8.690;2023-05-16T00:54:37;23.52;;;11.55;;
78887;SDS011;68276;49.326;8.690;2023-05-16T00:57:03;27.10;;;12.90;;
78887;SDS011;68276;49.326;8.690;2023-05-16T00:59:30;28.15;;;12.60;;
78887;SDS011;68276;49.326;8.690;2023-05-16T01:01:56;27.15;;;13.07;;
78887;SDS011;68276;49.326;8.690;2023-05-16T01:04:22;27.85;;;13.07;;
78887;SDS011;68276;49.326;8.690;2023-05-16T01:09:14;26.42;;;12.85;;
78887;SDS011;68276;49.326;8.690;2023-05-16T01:17:06;31.50;;;14.35;;
78887;SDS011;68276;49.326;8.690;2023-05-16T01:28:09;32.70;;;14.75;;
78887;SDS011;68276;49.326;8.690;2023-05-16T01:30:38;33.63;;;15.05;;
78887;SDS011;68276;49.326;8.690;2023-05-16T01:33:05;28.92;;;13.15;;
78887;SDS011;68276;49.326;8.690;2023-05-16T01:35:31;35.13;;;15.13;;
78887;SDS011;68276;49.326;8.690;2023-05-16T01:41:23;32.22;;;14.20;;
78887;SDS011;68276;49.326;8.690;2023-05-16T01:43:57;31.25;;;14.80;;
78887;SDS011;68276;49.326;8.690;2023-05-16T01:46:26;35.38;;;15.32;;
78887;SDS011;68276;49.326;8.690;2023-05-16T01:52:07;28.92;;;13.98;;
78887;SDS011;68276;49.326;8.690;2023-05-16T01:54:36;31.90;;;14.70;;
78887;SDS011;68276;49.326;8.690;2023-05-16T01:57:03;33.20;;;15.02;;
78887;SDS011;68276;49.326;8.690;2023-05-16T01:59:32;31.42;;;14.77;;
78887;SDS011;68276;49.326;8.690;2023-05-16T02:04:24;29.87;;;13.53;;
78887;SDS011;68276;49.326;8.690;2023-05-16T02:06:49;28.50;;;13.52;;
78887;SDS011;68276;49.326;8.690;2023-05-16T02:09:15;33.47;;;14.85;;
78887;SDS011;68276;49.326;8.690;2023-05-16T02:11:40;33.88;;;14.85;;
78887;SDS011;68276;49.326;8.690;2023-05-16T02:14:06;30.77;;;13.77;;
78887;SDS011;68276;49.326;8.690;2023-05-16T02:16:31;35.50;;;16.27;;
78887;SDS011;68276;49.326;8.690;2023-05-16T02:21:23;33.93;;;16.27;;
78887;SDS011;68276;49.326;8.690;2023-05-16T02:23:48;35.30;;;14.90;;
78887;SDS011;68276;49.326;8.690;2023-05-16T02:26:13;32.87;;;15.17;;
78887;SDS011;68276;49.326;8.690;2023-05-16T02:28:39;32.53;;;15.13;;
78887;SDS011;68276;49.326;8.690;2023-05-16T02:31:04;29.30;;;14.15;;
78887;SDS011;68276;49.326;8.690;2023-05-16T02:33:30;34.42;;;15.85;;
78887;SDS011;68276;49.326;8.690;2023-05-16T02:35:55;38.47;;;17.47;;
78887;SDS011;68276;49.326;8.690;2023-05-16T02:38:21;36.33;;;16.33;;
78887;SDS011;68276;49.326;8.690;2023-05-16T02:40:46;33.85;;;16.02;;
78887;SDS011;68276;49.326;8.690;2023-05-16T02:43:12;32.90;;;16.17;;
78887;SDS011;68276;49.326;8.690;2023-05-16T02:45:38;36.25;;;17.30;;
78887;SDS011;68276;49.326;8.690;2023-05-16T02:48:03;35.38;;;16.27;;
78887;SDS011;68276;49.326;8.690;2023-05-16T02:50:29;33.65;;;16.83;;
78887;SDS011;68276;49.326;8.690;2023-05-16T02:52:55;33.67;;;15.55;;
78887;SDS011;68276;49.326;8.690;2023-05-16T02:55:21;32.67;;;15.90;;
78887;SDS011;68276;49.326;8.690;2023-05-16T02:57:46;35.30;;;15.70;;
78887;SDS011;68276;49.326;8.690;2023-05-16T03:00:11;30.53;;;14.67;;
78887;SDS011;68276;49.326;8.690;2023-05-16T03:05:03;33.77;;;14.50;;
78887;SDS011;68276;49.326;8.690;2023-05-16T03:07:30;37.28;;;15.93;;
78887;SDS011;68276;49.326;8.690;2023-05-16T03:09:55;31.90;;;15.65;;
78887;SDS011;68276;49.326;8.690;2023-05-16T03:12:21;32.83;;;16.03;;
78887;SDS011;68276;49.326;8.690;2023-05-16T03:14:46;32.03;;;14.68;;
78887;SDS011;68276;49.326;8.690;2023-05-16T03:17:11;34.73;;;15.87;;
78887;SDS011;68276;49.326;8.690;2023-05-16T03:19:37;34.03;;;14.67;;
78887;SDS011;68276;49.326;8.690;2023-05-16T03:22:02;27.93;;;13.27;;
78887;SDS011;68276;49.326;8.690;2023-05-16T03:24:28;30.95;;;13.68;;
78887;SDS011;68276;49.326;8.690;2023-05-16T03:26:53;29.73;;;13.75;;
78887;SDS011;68276;49.326;8.690;2023-05-16T03:29:19;30.42;;;13.55;;
78887;SDS011;68276;49.326;8.690;2023-05-16T03:31:44;28.80;;;13.23;;
78887;SDS011;68276;49.326;8.690;2023-05-16T03:34:10;27.88;;;12.98;;
78887;SDS011;68276;49.326;8.690;2023-05-16T03:36:35;30.92;;;14.15;;
78887;SDS011;68276;49.326;8.690;2023-05-16T03:39:02;29.77;;;13.45;;
78887;SDS011;68276;49.326;8.690;2023-05-16T03:41:28;29.80;;;13.40;;
78887;SDS011;68276;49.326;8.690;2023-05-16T03:43:53;25.13;;;12.77;;
78887;SDS011;68276;49.326;8.690;2023-05-16T03:46:18;28.30;;;12.43;;
78887;SDS011;68276;49.326;8.690;2023-05-16T03:48:44;25.90;;;12.23;;
78887;SDS011;68276;49.326;8.690;2023-05-16T03:51:09;26.30;;;11.67;;
78887;SDS011;68276;49.326;8.690;2023-05-16T03:53:35;25.20;;;12.32;;
78887;SDS011;68276;49.326;8.690;2023-05-16T03:56:01;25.05;;;11.23;;
78887;SDS011;68276;49.326;8.690;2023-05-16T03:58:27;24.20;;;10.82;;
78887;SDS011;68276;49.326;8.690;2023-05-16T04:00:53;26.42;;;11.80;;
78887;SDS011;68276;49.326;8.690;2023-05-16T04:03:18;22.77;;;10.20;;
78887;SDS011;68276;49.326;8.690;2023-05-16T04:05:44;23.15;;;10.18;;
78887;SDS011;68276;49.326;8.690;2023-05-16T04:08:10;22.80;;;10.20;;
78887;SDS011;68276;49.326;8.690;2023-05-16T04:10:35;23.83;;;10.13;;
78887;SDS011;68276;49.326;8.690;2023-05-16T04:13:01;23.75;;;9.45;;
78887;SDS011;68276;49.326;8.690;2023-05-16T04:15:26;22.67;;;9.60;;
78887;SDS011;68276;49.326;8.690;2023-05-16T04:17:52;26.43;;;11.00;;
78887;SDS011;68276;49.326;8.690;2023-05-16T04:20:17;24.63;;;9.03;;
78887;SDS011;68276;49.326;8.690;2023-05-16T04:22:45;23.20;;;9.48;;
78887;SDS011;68276;49.326;8.690;2023-05-16T04:25:11;24.05;;;9.77;;
78887;SDS011;68276;49.326;8.690;2023-05-16T04:27:38;22.08;;;9.40;;
78887;SDS011;68276;49.326;8.690;2023-05-16T04:30:03;20.20;;;8.65;;
78887;SDS011;68276;49.326;8.690;2023-05-16T04:32:29;21.55;;;9.10;;
78887;SDS011;68276;49.326;8.690;2023-05-16T04:34:55;24.25;;;9.40;;
78887;SDS011;68276;49.326;8.690;2023-05-16T04:37:20;22.95;;;9.63;;
78887;SDS011;68276;49.326;8.690;2023-05-16T04:39:46;22.98;;;9.02;;
78887;SDS011;68276;49.326;8.690;2023-05-16T04:42:11;19.75;;;9.40;;
78887;SDS011;68276;49.326;8.690;2023-05-16T04:44:37;21.30;;;10.27;;
78887;SDS011;68276;49.326;8.690;2023-05-16T04:47:02;20.77;;;8.70;;
78887;SDS011;68276;49.326;8.690;2023-05-16T04:49:27;21.23;;;8.93;;
78887;SDS011;68276;49.326;8.690;2023-05-16T04:51:53;20.40;;;8.93;;
78887;SDS011;68276;49.326;8.690;2023-05-16T04:54:18;19.50;;;8.97;;
78887;SDS011;68276;49.326;8.690;2023-05-16T04:56:43;21.63;;;9.45;;
78887;SDS011;68276;49.326;8.690;2023-05-16T04:59:09;22.53;;;9.80;;
78887;SDS011;68276;49.326;8.690;2023-05-16T05:01:34;24.70;;;10.20;;
78887;SDS011;68276;49.326;8.690;2023-05-16T05:04:00;21.50;;;9.50;;
78887;SDS011;68276;49.326;8.690;2023-05-16T05:06:26;22.40;;;9.07;;
78887;SDS011;68276;49.326;8.690;2023-05-16T05:08:52;23.10;;;9.47;;
78887;SDS011;68276;49.326;8.690;2023-05-16T05:11:17;21.10;;;8.57;;
78887;SDS011;68276;49.326;8.690;2023-05-16T05:13:43;23.02;;;8.52;;
78887;SDS011;68276;49.326;8.690;2023-05-16T05:16:08;19.17;;;9.47;;
78887;SDS011;68276;49.326;8.690;2023-05-16T05:18:33;21.10;;;8.40;;
78887;SDS011;68276;49.326;8.690;2023-05-16T05:20:59;23.07;;;8.80;;
78887;SDS011;68276;49.326;8.690;2023-05-16T05:23:25;20.17;;;9.10;;
78887;SDS011;68276;49.326;8.690;2023-05-16T05:25:50;20.27;;;8.43;;
78887;SDS011;68276;49.326;8.690;2023-05-16T05:28:16;21.45;;;8.50;;
78887;SDS011;68276;49.326;8.690;2023-05-16T05:30:41;21.25;;;8.55;;
78887;SDS011;68276;49.326;8.690;2023-05-16T05:33:06;23.47;;;9.20;;
78887;SDS011;68276;49.326;8.690;2023-05-16T05:35:32;21.17;;;9.65;;
78887;SDS011;68276;49.326;8.690;2023-05-16T05:37:57;21.75;;;9.00;;
78887;SDS011;68276;49.326;8.690;2023-05-16T05:40:23;23.00;;;8.23;;
78887;SDS011;68276;49.326;8.690;2023-05-16T05:42:48;20.80;;;8.52;;
78887;SDS011;68276;49.326;8.690;2023-05-16T05:45:14;27.40;;;10.10;;
78887;SDS011;68276;49.326;8.690;2023-05-16T05:47:40;20.45;;;8.30;;
78887;SDS011;68276;49.326;8.690;2023-05-16T05:50:06;22.48;;;8.88;;
78887;SDS011;68276;49.326;8.690;2023-05-16T05:52:32;21.05;;;8.18;;
78887;SDS011;68276;49.326;8.690;2023-05-16T05:54:57;22.02;;;9.02;;
78887;SDS011;68276;49.326;8.690;2023-05-16T05:57:24;19.65;;;9.07;;
78887;SDS011;68276;49.326;8.690;2023-05-16T05:59:49;18.52;;;8.23;;
78887;SDS011;68276;49.326;8.690;2023-05-16T06:02:14;21.55;;;8.57;;
78887;SDS011;68276;49.326;8.690;2023-05-16T06:04:40;20.08;;;8.48;;
78887;SDS011;68276;49.326;8.690;2023-05-16T06:07:06;21.85;;;8.38;;
78887;SDS011;68276;49.326;8.690;2023-05-16T06:09:32;21.58;;;8.05;;
78887;SDS011;68276;49.326;8.690;2023-05-16T06:11:57;19.00;;;7.87;;
78887;SDS011;68276;49.326;8.690;2023-05-16T06:14:22;20.77;;;8.00;;
78887;SDS011;68276;49.326;8.690;2023-05-16T06:16:48;18.30;;;7.90;;
78887;SDS011;68276;49.326;8.690;2023-05-16T06:19:13;19.70;;;8.63;;
78887;SDS011;68276;49.326;8.690;2023-05-16T06:21:41;16.70;;;8.20;;
78887;SDS011;68276;49.326;8.690;2023-05-16T06:24:07;19.58;;;8.82;;
78887;SDS011;68276;49.326;8.690;2023-05-16T06:26:34;17.20;;;7.00;;
78887;SDS011;68276;49.326;8.690;2023-05-16T06:29:00;20.50;;;7.82;;
78887;SDS011;68276;49.326;8.690;2023-05-16T06:31:25;19.65;;;7.45;;
78887;SDS011;68276;49.326;8.690;2023-05-16T06:33:51;17.87;;;7.30;;
78887;SDS011;68276;49.326;8.690;2023-05-16T06:36:16;21.40;;;8.80;;
78887;SDS011;68276;49.326;8.690;2023-05-16T06:38:41;17.10;;;7.40;;
78887;SDS011;68276;49.326;8.690;2023-05-16T06:41:07;17.33;;;6.90;;
78887;SDS011;68276;49.326;8.690;2023-05-16T06:43:32;18.23;;;7.63;;
78887;SDS011;68276;49.326;8.690;2023-05-16T06:45:57;17.93;;;6.70;;
78887;SDS011;68276;49.326;8.690;2023-05-16T06:48:23;19.03;;;7.03;;
78887;SDS011;68276;49.326;8.690;2023-05-16T06:50:48;17.20;;;6.57;;
78887;SDS011;68276;49.326;8.690;2023-05-16T06:53:16;18.77;;;6.50;;
78887;SDS011;68276;49.326;8.690;2023-05-16T06:55:42;14.75;;;6.00;;
78887;SDS011;68276;49.326;8.690;2023-05-16T06:58:07;16.67;;;5.80;;
78887;SDS011;68276;49.326;8.690;2023-05-16T07:00:33;10.90;;;4.85;;
78887;SDS011;68276;49.326;8.690;2023-05-16T07:02:58;17.83;;;5.93;;
78887;SDS011;68276;49.326;8.690;2023-05-16T07:05:23;15.77;;;5.53;;
78887;SDS011;68276;49.326;8.690;2023-05-16T07:07:49;13.02;;;5.45;;
78887;SDS011;68276;49.326;8.690;2023-05-16T07:10:14;15.77;;;5.20;;
78887;SDS011;68276;49.326;8.690;2023-05-16T07:12:40;11.48;;;4.35;;
78887;SDS011;68276;49.326;8.690;2023-05-16T07:15:07;12.68;;;5.32;;
78887;SDS011;68276;49.326;8.690;2023-05-16T07:17:32;13.38;;;5.50;;
78887;SDS011;68276;49.326;8.690;2023-05-16T07:19:58;15.57;;;4.97;;
78887;SDS011;68276;49.326;8.690;2023-05-16T07:22:23;14.47;;;5.03;;
78887;SDS011;68276;49.326;8.690;2023-05-16T07:24:49;11.43;;;4.23;;
78887;SDS011;68276;49.326;8.690;2023-05-16T07:27:14;11.43;;;5.05;;
78887;SDS011;68276;49.326;8.690;2023-05-16T07:29:40;13.98;;;5.00;;
78887;SDS011;68276;49.326;8.690;2023-05-16T07:32:05;13.17;;;4.40;;
78887;SDS011;68276;49.326;8.690;2023-05-16T07:34:31;11.20;;;4.38;;
78887;SDS011;68276;49.326;8.690;2023-05-16T07:36:56;12.37;;;4.40;;
78887;SDS011;68276;49.326;8.690;2023-05-16T07:39:22;10.50;;;4.03;;
78887;SDS011;68276;49.326;8.690;2023-05-16T07:41:47;9.23;;;3.40;;
78887;SDS011;68276;49.326;8.690;2023-05-16T07:44:12;8.20;;;2.97;;
78887;SDS011;68276;49.326;8.690;2023-05-16T07:46:38;10.70;;;3.20;;
78887;SDS011;68276;49.326;8.690;2023-05-16T07:49:03;10.40;;;3.13;;
78887;SDS011;68276;49.326;8.690;2023-05-16T07:51:29;9.70;;;2.77;;
78887;SDS011;68276;49.326;8.690;2023-05-16T07:53:54;8.67;;;3.00;;
78887;SDS011;68276;49.326;8.690;2023-05-16T07:56:20;9.98;;;2.90;;
78887;SDS011;68276;49.326;8.690;2023-05-16T07:58:45;9.98;;;3.28;;
78887;SDS011;68276;49.326;8.690;2023-05-16T08:01:12;8.15;;;2.55;;
78887;SDS011;68276;49.326;8.690;2023-05-16T08:03:38;10.30;;;2.70;;
78887;SDS011;68276;49.326;8.690;2023-05-16T08:06:03;9.40;;;2.70;;
78887;SDS011;68276;49.326;8.690;2023-05-16T08:08:29;7.95;;;2.40;;
78887;SDS011;68276;49.326;8.690;2023-05-16T08:10:54;7.72;;;2.42;;
78887;SDS011;68276;49.326;8.690;2023-05-16T08:13:20;7.75;;;2.47;;
78887;SDS011;68276;49.326;8.690;2023-05-16T08:15:45;7.97;;;2.30;;
78887;SDS011;68276;49.326;8.690;2023-05-16T08:18:11;7.05;;;1.95;;
78887;SDS011;68276;49.326;8.690;2023-05-16T08:20:38;5.60;;;1.70;;
78887;SDS011;68276;49.326;8.690;2023-05-16T08:23:05;6.60;;;2.00;;
78887;SDS011;68276;49.326;8.690;2023-05-16T08:25:31;6.82;;;1.88;;
78887;SDS011;68276;49.326;8.690;2023-05-16T08:27:56;5.20;;;1.50;;
78887;SDS011;68276;49.326;8.690;2023-05-16T08:30:22;6.82;;;1.77;;
78887;SDS011;68276;49.326;8.690;2023-05-16T08:32:47;7.82;;;2.95;;
78887;SDS011;68276;49.326;8.690;2023-05-16T08:35:13;4.70;;;1.50;;
78887;SDS011;68276;49.326;8.690;2023-05-16T08:37:38;5.00;;;1.75;;
78887;SDS011;68276;49.326;8.690;2023-05-16T08:40:08;4.95;;;1.40;;
78887;SDS011;68276;49.326;8.690;2023-05-16T08:42:34;4.63;;;1.50;;
78887;SDS011;68276;49.326;8.690;2023-05-16T08:45:00;3.47;;;1.00;;
78887;SDS011;68276;49.326;8.690;2023-05-16T08:47:26;3.10;;;1.00;;
78887;SDS011;68276;49.326;8.690;2023-05-16T08:49:55;3.50;;;1.10;;
78887;SDS011;68276;49.326;8.690;2023-05-16T08:52:22;1.40;;;0.55;;
78887;SDS011;68276;49.326;8.690;2023-05-16T08:54:54;2.65;;;0.65;;
78887;SDS011;68276;49.326;8.690;2023-05-16T08:57:21;2.25;;;0.85;;
78887;SDS011;68276;49.326;8.690;2023-05-16T08:59:48;3.45;;;0.90;;
78887;SDS011;68276;49.326;8.690;2023-05-16T09:02:13;2.63;;;0.90;;
78887;SDS011;68276;49.326;8.690;2023-05-16T09:04:39;2.97;;;0.90;;
78887;SDS011;68276;49.326;8.690;2023-05-16T09:07:07;4.75;;;1.10;;
78887;SDS011;68276;49.326;8.690;2023-05-16T09:09:32;2.08;;;0.77;;
78887;SDS011;68276;49.326;8.690;2023-05-16T09:11:57;2.27;;;0.80;;
78887;SDS011;68276;49.326;8.690;2023-05-16T09:14:23;3.88;;;0.80;;
78887;SDS011;68276;49.326;8.690;2023-05-16T09:17:05;3.60;;;1.08;;
78887;SDS011;68276;49.326;8.690;2023-05-16T09:19:38;3.72;;;1.00;;
78887;SDS011;68276;49.326;8.690;2023-05-16T09:22:05;5.05;;;0.90;;
78887;SDS011;68276;49.326;8.690;2023-05-16T09:24:32;4.47;;;1.00;;
78887;SDS011;68276;49.326;8.690;2023-05-16T09:27:09;2.55;;;0.90;;
78887;SDS011;68276;49.326;8.690;2023-05-16T09:29:35;3.05;;;0.93;;
78887;SDS011;68276;49.326;8.690;2023-05-16T09:32:08;2.95;;;0.88;;
78887;SDS011;68276;49.326;8.690;2023-05-16T09:34:38;3.95;;;1.00;;
78887;SDS011;68276;49.326;8.690;2023-05-16T09:37:17;3.17;;;0.80;;
78887;SDS011;68276;49.326;8.690;2023-05-16T09:39:47;1.98;;;0.80;;
78887;SDS011;68276;49.326;8.690;2023-05-16T09:42:14;1.88;;;0.60;;
78887;SDS011;68276;49.326;8.690;2023-05-16T09:44:40;2.60;;;0.90;;
78887;SDS011;68276;49.326;8.690;2023-05-16T09:47:12;3.90;;;0.90;;
78887;SDS011;68276;49.326;8.690;2023-05-16T09:49:39;2.83;;;0.80;;
78887;SDS011;68276;49.326;8.690;2023-05-16T09:52:04;2.50;;;0.80;;
78887;SDS011;68276;49.326;8.690;2023-05-16T09:54:31;3.08;;;1.00;;
78887;SDS011;68276;49.326;8.690;2023-05-16T09:56:57;2.78;;;1.00;;
78887;SDS011;68276;49.326;8.690;2023-05-16T09:59:24;3.85;;;1.00;;
78887;SDS011;68276;49.326;8.690;2023-05-16T10:01:52;2.00;;;0.70;;
78887;SDS011;68276;49.326;8.690;2023-05-16T10:04:18;3.25;;;0.70;;
78887;SDS011;68276;49.326;8.690;2023-05-16T10:06:44;1.67;;;0.60;;
78887;SDS011;68276;49.326;8.690;2023-05-16T10:09:10;3.53;;;0.90;;
78887;SDS011;68276;49.326;8.690;2023-05-16T10:11:40;1.55;;;0.70;;
78887;SDS011;68276;49.326;8.690;2023-05-16T10:14:08;1.40;;;0.57;;
78887;SDS011;68276;49.326;8.690;2023-05-16T10:16:36;1.65;;;0.70;;
78887;SDS011;68276;49.326;8.690;2023-05-16T10:19:02;4.68;;;0.77;;
78887;SDS011;68276;49.326;8.690;2023-05-16T10:21:28;1.50;;;0.65;;
78887;SDS011;68276;49.326;8.690;2023-05-16T10:23:56;2.72;;;0.88;;
78887;SDS011;68276;49.326;8.690;2023-05-16T10:26:27;3.80;;;0.82;;
78887;SDS011;68276;49.326;8.690;2023-05-16T10:28:56;2.90;;;0.75;;
78887;SDS011;68276;49.326;8.690;2023-05-16T10:31:23;3.35;;;0.75;;
78887;SDS011;68276;49.326;8.690;2023-05-16T10:33:49;2.53;;;0.52;;
78887;SDS011;68276;49.326;8.690;2023-05-16T10:36:15;2.08;;;0.60;;
78887;SDS011;68276;49.326;8.690;2023-05-16T10:38:41;2.88;;;0.80;;
78887;SDS011;68276;49.326;8.690;2023-05-16T10:41:08;3.05;;;0.60;;
78887;SDS011;68276;49.326;8.690;2023-05-16T10:43:35;1.17;;;0.50;;
78887;SDS011;68276;49.326;8.690;2023-05-16T10:46:07;1.50;;;0.70;;
78887;SDS011;68276;49.326;8.690;2023-05-16T10:48:38;1.60;;;0.52;;
78887;SDS011;68276;49.326;8.690;2023-05-16T10:54:04;1.90;;;0.85;;
78887;SDS011;68276;49.326;8.690;2023-05-16T10:56:32;1.73;;;0.60;;
78887;SDS011;68276;49.326;8.690;2023-05-16T10:58:59;5.25;;;1.48;;
78887;SDS011;68276;49.326;8.690;2023-05-16T11:01:28;2.80;;;0.70;;
78887;SDS011;68276;49.326;8.690;2023-05-16T11:06:22;2.45;;;0.88;;
78887;SDS011;68276;49.326;8.690;2023-05-16T11:11:39;3.28;;;0.70;;
78887;SDS011;68276;49.326;8.690;2023-05-16T11:17:07;3.28;;;0.95;;
78887;SDS011;68276;49.326;8.690;2023-05-16T11:19:44;2.55;;;0.80;;
78887;SDS011;68276;49.326;8.690;2023-05-16T11:27:25;2.17;;;0.60;;
78887;SDS011;68276;49.326;8.690;2023-05-16T11:29:51;1.73;;;0.50;;
78887;SDS011;68276;49.326;8.690;2023-05-16T11:32:21;1.65;;;0.70;;
78887;SDS011;68276;49.326;8.690;2023-05-16T11:34:48;3.15;;;0.88;;
78887;SDS011;68276;49.326;8.690;2023-05-16T11:37:14;2.17;;;0.70;;
78887;SDS011;68276;49.326;8.690;2023-05-16T11:39:41;4.40;;;0.98;;
78887;SDS011;68276;49.326;8.690;2023-05-16T11:42:07;2.28;;;0.80;;
78887;SDS011;68276;49.326;8.690;2023-05-16T11:44:33;2.70;;;0.70;;
78887;SDS011;68276;49.326;8.690;2023-05-16T11:46:59;2.28;;;0.90;;
78887;SDS011;68276;49.326;8.690;2023-05-16T11:49:26;4.28;;;1.20;;
78887;SDS011;68276;49.326;8.690;2023-05-16T11:51:53;2.78;;;0.88;;
78887;SDS011;68276;49.326;8.690;2023-05-16T11:56:45;2.58;;;0.70;;
78887;SDS011;68276;49.326;8.690;2023-05-16T11:59:11;4.07;;;0.82;;
78887;SDS011;68276;49.326;8.690;2023-05-16T12:01:38;3.10;;;1.02;;
78887;SDS011;68276;49.326;8.690;2023-05-16T12:04:08;2.67;;;1.10;;
78887;SDS011;68276;49.326;8.690;2023-05-16T12:06:38;2.50;;;0.90;;
78887;SDS011;68276;49.326;8.690;2023-05-16T12:09:05;2.40;;;0.85;;
78887;SDS011;68276;49.326;8.690;2023-05-16T12:11:37;2.33;;;0.75;;
78887;SDS011;68276;49.326;8.690;2023-05-16T12:14:06;1.73;;;0.70;;
78887;SDS011;68276;49.326;8.690;2023-05-16T12:16:33;2.90;;;0.80;;
78887;SDS011;68276;49.326;8.690;2023-05-16T12:19:02;6.05;;;1.30;;
78887;SDS011;68276;49.326;8.690;2023-05-16T12:21:30;4.30;;;0.98;;
78887;SDS011;68276;49.326;8.690;2023-05-16T12:23:56;4.20;;;0.90;;
78887;SDS011;68276;49.326;8.690;2023-05-16T12:26:26;3.08;;;0.88;;
78887;SDS011;68276;49.326;8.690;2023-05-16T12:28:58;3.42;;;0.88;;
78887;SDS011;68276;49.326;8.690;2023-05-16T12:31:29;3.63;;;1.00;;
78887;SDS011;68276;49.326;8.690;2023-05-16T12:33:55;3.85;;;0.88;;
78887;SDS011;68276;49.326;8.690;2023-05-16T12:38:47;4.95;;;1.10;;
78887;SDS011;68276;49.326;8.690;2023-05-16T12:41:17;5.63;;;1.08;;
78887;SDS011;68276;49.326;8.690;2023-05-16T12:44:04;3.03;;;1.00;;
78887;SDS011;68276;49.326;8.690;2023-05-16T12:47:12;5.07;;;1.10;;
78887;SDS011;68276;49.326;8.690;2023-05-16T12:49:42;5.03;;;0.98;;
78887;SDS011;68276;49.326;8.690;2023-05-16T12:52:18;4.78;;;1.23;;
78887;SDS011;68276;49.326;8.690;2023-05-16T12:54:45;7.15;;;1.33;;
78887;SDS011;68276;49.326;8.690;2023-05-16T12:59:36;3.77;;;1.10;;
78887;SDS011;68276;49.326;8.690;2023-05-16T13:02:02;4.05;;;1.10;;
78887;SDS011;68276;49.326;8.690;2023-05-16T13:04:28;4.07;;;1.30;;
78887;SDS011;68276;49.326;8.690;2023-05-16T13:06:53;5.45;;;1.08;;
78887;SDS011;68276;49.326;8.690;2023-05-16T13:09:19;5.20;;;1.00;;
78887;SDS011;68276;49.326;8.690;2023-05-16T13:11:44;4.93;;;1.10;;
78887;SDS011;68276;49.326;8.690;2023-05-16T13:14:10;4.47;;;1.30;;
78887;SDS011;68276;49.326;8.690;2023-05-16T13:16:35;4.97;;;1.13;;
78887;SDS011;68276;49.326;8.690;2023-05-16T13:19:00;4.63;;;1.23;;
78887;SDS011;68276;49.326;8.690;2023-05-16T13:21:26;6.75;;;1.30;;
78887;SDS011;68276;49.326;8.690;2023-05-16T13:23:54;4.45;;;1.10;;
78887;SDS011;68276;49.326;8.690;2023-05-16T13:26:19;4.35;;;1.52;;
78887;SDS011;68276;49.326;8.690;2023-05-16T13:28:46;6.50;;;1.30;;
78887;SDS011;68276;49.326;8.690;2023-05-16T13:31:11;4.85;;;1.27;;
78887;SDS011;68276;49.326;8.690;2023-05-16T13:33:36;6.80;;;1.17;;
78887;SDS011;68276;49.326;8.690;2023-05-16T13:36:02;5.78;;;1.35;;
78887;SDS011;68276;49.326;8.690;2023-05-16T13:38:28;4.88;;;1.10;;
78887;SDS011;68276;49.326;8.690;2023-05-16T13:40:53;10.88;;;1.42;;
78887;SDS011;68276;49.326;8.690;2023-05-16T13:43:18;6.15;;;1.20;;
78887;SDS011;68276;49.326;8.690;2023-05-16T13:45:44;6.85;;;1.25;;
78887;SDS011;68276;49.326;8.690;2023-05-16T13:48:09;5.00;;;1.10;;
78887;SDS011;68276;49.326;8.690;2023-05-16T13:50:35;7.05;;;1.30;;
78887;SDS011;68276;49.326;8.690;2023-05-16T13:53:01;4.30;;;1.10;;
78887;SDS011;68276;49.326;8.690;2023-05-16T13:55:26;7.28;;;1.23;;
78887;SDS011;68276;49.326;8.690;2023-05-16T13:57:52;5.35;;;1.35;;
78887;SDS011;68276;49.326;8.690;2023-05-16T14:00:23;6.60;;;1.20;;
78887;SDS011;68276;49.326;8.690;2023-05-16T14:02:48;6.07;;;1.17;;
78887;SDS011;68276;49.326;8.690;2023-05-16T14:05:14;6.78;;;1.23;;
78887;SDS011;68276;49.326;8.690;2023-05-16T14:07:40;4.90;;;1.10;;
78887;SDS011;68276;49.326;8.690;2023-05-16T14:10:06;7.22;;;1.50;;
78887;SDS011;68276;49.326;8.690;2023-05-16T14:12:32;5.40;;;1.30;;
78887;SDS011;68276;49.326;8.690;2023-05-16T14:14:58;5.72;;;1.05;;
78887;SDS011;68276;49.326;8.690;2023-05-16T14:17:24;5.70;;;1.45;;
78887;SDS011;68276;49.326;8.690;2023-05-16T14:19:49;4.30;;;0.97;;
78887;SDS011;68276;49.326;8.690;2023-05-16T14:22:15;5.20;;;1.10;;
78887;SDS011;68276;49.326;8.690;2023-05-16T14:24:40;5.93;;;1.03;;
78887;SDS011;68276;49.326;8.690;2023-05-16T14:27:05;5.97;;;1.03;;
78887;SDS011;68276;49.326;8.690;2023-05-16T14:29:31;6.95;;;1.30;;
78887;SDS011;68276;49.326;8.690;2023-05-16T14:31:58;2.88;;;0.80;;
78887;SDS011;68276;49.326;8.690;2023-05-16T14:34:23;5.50;;;1.10;;
78887;SDS011;68276;49.326;8.690;2023-05-16T14:36:48;3.45;;;0.90;;
78887;SDS011;68276;49.326;8.690;2023-05-16T14:39:16;5.53;;;1.02;;
78887;SDS011;68276;49.326;8.690;2023-05-16T14:41:42;2.80;;;1.00;;
78887;SDS011;68276;49.326;8.690;2023-05-16T14:44:07;2.88;;;0.80;;
78887;SDS011;68276;49.326;8.690;2023-05-16T14:48:58;4.43;;;1.00;;
78887;SDS011;68276;49.326;8.690;2023-05-16T14:51:24;7.57;;;1.17;;
78887;SDS011;68276;49.326;8.690;2023-05-16T14:53:50;8.32;;;1.33;;
78887;SDS011;68276;49.326;8.690;2023-05-16T14:56:16;5.25;;;1.60;;
78887;SDS011;68276;49.326;8.690;2023-05-16T15:01:07;3.77;;;0.87;;
78887;SDS011;68276;49.326;8.690;2023-05-16T15:03:32;3.97;;;0.88;;
78887;SDS011;68276;49.326;8.690;2023-05-16T15:05:58;7.22;;;1.23;;
78887;SDS011;68276;49.326;8.690;2023-05-16T15:08:24;5.00;;;0.90;;
78887;SDS011;68276;49.326;8.690;2023-05-16T15:10:49;4.50;;;0.90;;
78887;SDS011;68276;49.326;8.690;2023-05-16T15:13:15;5.75;;;1.20;;
78887;SDS011;68276;49.326;8.690;2023-05-16T15:15:40;5.93;;;1.13;;
78887;SDS011;68276;49.326;8.690;2023-05-16T15:18:06;4.25;;;1.00;;
78887;SDS011;68276;49.326;8.690;2023-05-16T15:20:31;4.78;;;1.00;;
78887;SDS011;68276;49.326;8.690;2023-05-16T15:22:57;6.25;;;1.20;;
78887;SDS011;68276;49.326;8.690;2023-05-16T15:25:22;8.77;;;1.00;;
78887;SDS011;68276;49.326;8.690;2023-05-16T15:27:51;4.25;;;1.00;;
78887;SDS011;68276;49.326;8.690;2023-05-16T15:30:16;5.28;;;1.27;;
78887;SDS011;68276;49.326;8.690;2023-05-16T15:32:42;6.40;;;1.17;;